LBT7927 LRTR-DTMB
Flight info
| Callsign | LBT7927 |
|---|---|
| Flight time | N/A |
| Altitude | 36000 |
| Route | MAVIT DCT TORTO DCT KOFER DCT PINUK DCT CRAYE/N0458F350 DCT INGAB DCT MEGAN DCT TUPAL/N0459F360 UG728 CBN UG727 DIDON G727 ATLEL ATLEL1R |
| Aircraft | A320/M-SDE3FGHIRWY/LB1 |
Departure
| Time | 2026-05-05 09:36 |
|---|---|
| Airport | Timișoara Traian Vuia International Airport (LRTR) |
Arrival
| Time | N/A |
|---|---|
| Airport | Monastir Habib Bourguiba International Airport (DTMB) |
| Time | Latitude | Longitude | Altitude | Speed | Heading |
|---|---|---|---|---|---|
| 2026-05-05 09:21 | 45.81088 | 21.32134 | 352 ft | 0 kts | 192° |
| 2026-05-05 09:30 | 45.81103 | 21.32140 | 357 ft | 4 kts | 241° |
| 2026-05-05 09:31 | 45.81103 | 21.32171 | 360 ft | 4 kts | 291° |
| 2026-05-05 09:31 | 45.81100 | 21.32183 | 358 ft | 0 kts | 293° |
| 2026-05-05 09:33 | 45.81110 | 21.32151 | 358 ft | 7 kts | 293° |
| 2026-05-05 09:33 | 45.81127 | 21.32094 | 352 ft | 5 kts | 293° |
| 2026-05-05 09:33 | 45.81143 | 21.32038 | 358 ft | 11 kts | 293° |
| 2026-05-05 09:34 | 45.81188 | 21.31888 | 358 ft | 19 kts | 290° |
| 2026-05-05 09:34 | 45.81235 | 21.31702 | 355 ft | 20 kts | 290° |
| 2026-05-05 09:34 | 45.81259 | 21.31611 | 352 ft | 0 kts | 290° |
| 2026-05-05 09:35 | 45.81303 | 21.31576 | 355 ft | 18 kts | 357° |
| 2026-05-05 09:35 | 45.81474 | 21.31837 | 350 ft | 22 kts | 109° |
| 2026-05-05 09:35 | 45.81401 | 21.32128 | 356 ft | 57 kts | 110° |
| 2026-05-05 09:36 | 45.81193 | 21.32968 | 352 ft | 120 kts | 109° |
| 2026-05-05 09:36 | 45.80852 | 21.34346 | 360 ft | 168 kts | 109° |
| 2026-05-05 09:36 | 45.80426 | 21.36005 | 713 ft | 183 kts | 109° |
| 2026-05-05 09:36 | 45.79983 | 21.37726 | 1433 ft | 181 kts | 108° |
| 2026-05-05 09:37 | 45.79545 | 21.39463 | 1917 ft | 193 kts | 111° |
| 2026-05-05 09:37 | 45.79069 | 21.41351 | 2254 ft | 207 kts | 109° |
| 2026-05-05 09:37 | 45.78568 | 21.43343 | 2635 ft | 221 kts | 109° |
| 2026-05-05 09:37 | 45.77943 | 21.45468 | 2952 ft | 244 kts | 124° |
| 2026-05-05 09:38 | 45.76567 | 21.46995 | 3443 ft | 263 kts | 162° |
| 2026-05-05 09:38 | 45.74738 | 21.47039 | 4243 ft | 271 kts | 197° |
| 2026-05-05 09:38 | 45.73072 | 21.45771 | 5136 ft | 273 kts | 210° |
| 2026-05-05 09:38 | 45.71312 | 21.44794 | 6025 ft | 273 kts | 189° |
| 2026-05-05 09:39 | 45.70041 | 21.44564 | 6649 ft | 273 kts | 183° |
| 2026-05-05 09:39 | 45.68165 | 21.44504 | 7496 ft | 275 kts | 179° |
| 2026-05-05 09:39 | 45.66218 | 21.44589 | 8309 ft | 278 kts | 177° |
| 2026-05-05 09:39 | 45.63640 | 21.44736 | 9368 ft | 282 kts | 178° |
| 2026-05-05 09:40 | 45.62308 | 21.44796 | 9886 ft | 285 kts | 178° |
| 2026-05-05 09:40 | 45.60298 | 21.44862 | 10437 ft | 298 kts | 178° |
| 2026-05-05 09:40 | 45.58140 | 21.44907 | 10646 ft | 322 kts | 179° |
| 2026-05-05 09:40 | 45.55820 | 21.44935 | 10816 ft | 345 kts | 179° |
| 2026-05-05 09:41 | 45.53341 | 21.44946 | 10947 ft | 367 kts | 179° |
| 2026-05-05 09:41 | 45.50723 | 21.44946 | 11083 ft | 386 kts | 179° |
| 2026-05-05 09:41 | 45.47994 | 21.44943 | 11482 ft | 395 kts | 179° |
| 2026-05-05 09:41 | 45.45194 | 21.44936 | 12027 ft | 400 kts | 180° |
| 2026-05-05 09:42 | 45.42417 | 21.44517 | 12559 ft | 404 kts | 190° |
| 2026-05-05 09:42 | 45.39708 | 21.43382 | 13083 ft | 409 kts | 201° |
| 2026-05-05 09:42 | 45.37154 | 21.41540 | 13603 ft | 413 kts | 210° |
| 2026-05-05 09:42 | 45.34662 | 21.39476 | 14117 ft | 416 kts | 209° |
| 2026-05-05 09:43 | 45.32145 | 21.37419 | 14607 ft | 419 kts | 209° |
| 2026-05-05 09:43 | 45.29602 | 21.35360 | 15091 ft | 422 kts | 209° |
| 2026-05-05 09:43 | 45.27039 | 21.33288 | 15570 ft | 425 kts | 209° |
| 2026-05-05 09:43 | 45.24467 | 21.31195 | 16043 ft | 428 kts | 211° |
| 2026-05-05 09:44 | 45.22011 | 21.28776 | 16470 ft | 431 kts | 216° |
| 2026-05-05 09:44 | 45.19590 | 21.26258 | 16903 ft | 433 kts | 216° |
| 2026-05-05 09:44 | 45.17149 | 21.23724 | 17349 ft | 436 kts | 216° |
| 2026-05-05 09:44 | 45.14699 | 21.21185 | 17760 ft | 438 kts | 216° |
| 2026-05-05 09:45 | 45.12229 | 21.18629 | 18167 ft | 441 kts | 216° |
| 2026-05-05 09:45 | 45.09745 | 21.16059 | 18575 ft | 443 kts | 216° |
| 2026-05-05 09:45 | 45.07246 | 21.13479 | 18966 ft | 445 kts | 216° |
| 2026-05-05 09:45 | 45.04735 | 21.10892 | 19340 ft | 448 kts | 216° |
| 2026-05-05 09:46 | 45.02210 | 21.08296 | 19692 ft | 450 kts | 216° |
| 2026-05-05 09:46 | 44.99664 | 21.05683 | 20037 ft | 453 kts | 216° |
| 2026-05-05 09:46 | 44.97095 | 21.03044 | 20374 ft | 455 kts | 217° |
| 2026-05-05 09:46 | 44.94511 | 21.00388 | 20704 ft | 457 kts | 217° |
| 2026-05-05 09:47 | 44.91936 | 20.97739 | 21017 ft | 460 kts | 217° |
| 2026-05-05 09:47 | 44.89344 | 20.95077 | 21317 ft | 462 kts | 217° |
| 2026-05-05 09:47 | 44.86734 | 20.92402 | 21624 ft | 464 kts | 217° |
| 2026-05-05 09:47 | 44.84115 | 20.89724 | 21910 ft | 467 kts | 217° |
| 2026-05-05 09:48 | 44.81479 | 20.87035 | 22186 ft | 469 kts | 217° |
| 2026-05-05 09:48 | 44.78836 | 20.84338 | 22453 ft | 471 kts | 217° |
| 2026-05-05 09:48 | 44.76179 | 20.81626 | 22722 ft | 473 kts | 217° |
| 2026-05-05 09:48 | 44.73507 | 20.78905 | 22987 ft | 475 kts | 217° |
| 2026-05-05 09:49 | 44.70821 | 20.76181 | 23247 ft | 477 kts | 217° |
| 2026-05-05 09:49 | 44.68129 | 20.73451 | 23504 ft | 479 kts | 217° |
| 2026-05-05 09:49 | 44.65425 | 20.70708 | 23756 ft | 481 kts | 217° |
| 2026-05-05 09:49 | 44.62716 | 20.67962 | 24100 ft | 480 kts | 217° |
| 2026-05-05 09:50 | 44.60007 | 20.65220 | 24472 ft | 479 kts | 217° |
| 2026-05-05 09:50 | 44.57305 | 20.62493 | 24845 ft | 478 kts | 217° |
| 2026-05-05 09:50 | 44.54606 | 20.59773 | 25229 ft | 477 kts | 217° |
| 2026-05-05 09:50 | 44.51913 | 20.57061 | 25596 ft | 476 kts | 217° |
| 2026-05-05 09:51 | 44.49229 | 20.54358 | 25980 ft | 475 kts | 218° |
| 2026-05-05 09:51 | 44.46547 | 20.51659 | 26363 ft | 474 kts | 218° |
| 2026-05-05 09:51 | 44.43879 | 20.48974 | 26739 ft | 472 kts | 218° |
| 2026-05-05 09:51 | 44.41211 | 20.46295 | 27121 ft | 471 kts | 218° |
| 2026-05-05 09:52 | 44.38548 | 20.43624 | 27512 ft | 470 kts | 218° |
| 2026-05-05 09:52 | 44.35895 | 20.40968 | 27902 ft | 468 kts | 218° |
| 2026-05-05 09:52 | 44.33249 | 20.38324 | 28288 ft | 467 kts | 218° |
| 2026-05-05 09:52 | 44.30611 | 20.35692 | 28664 ft | 465 kts | 218° |
| 2026-05-05 09:53 | 44.27981 | 20.33070 | 29032 ft | 464 kts | 218° |
| 2026-05-05 09:53 | 44.25322 | 20.30424 | 29410 ft | 462 kts | 218° |
| 2026-05-05 09:53 | 44.22710 | 20.27826 | 29774 ft | 461 kts | 218° |
| 2026-05-05 09:53 | 44.20136 | 20.25267 | 30132 ft | 459 kts | 218° |
| 2026-05-05 09:54 | 44.17503 | 20.22655 | 30499 ft | 458 kts | 218° |
| 2026-05-05 09:54 | 44.14912 | 20.20085 | 30841 ft | 457 kts | 218° |
| 2026-05-05 09:54 | 44.12325 | 20.17519 | 31184 ft | 456 kts | 218° |
| 2026-05-05 09:54 | 44.09748 | 20.14963 | 31499 ft | 455 kts | 218° |
| 2026-05-05 09:55 | 44.07170 | 20.12411 | 31803 ft | 455 kts | 218° |
| 2026-05-05 09:55 | 44.04594 | 20.09869 | 32114 ft | 454 kts | 218° |
| 2026-05-05 09:55 | 44.02019 | 20.07331 | 32392 ft | 453 kts | 218° |
| 2026-05-05 09:55 | 43.99447 | 20.04803 | 32689 ft | 453 kts | 219° |
| 2026-05-05 09:56 | 43.96875 | 20.02277 | 32968 ft | 452 kts | 219° |
| 2026-05-05 09:56 | 43.94308 | 19.99754 | 33266 ft | 452 kts | 219° |
| 2026-05-05 09:56 | 43.91746 | 19.97229 | 33549 ft | 451 kts | 219° |
| 2026-05-05 09:56 | 43.89188 | 19.94709 | 33819 ft | 451 kts | 219° |
| 2026-05-05 09:57 | 43.86634 | 19.92197 | 34088 ft | 450 kts | 219° |
| 2026-05-05 09:57 | 43.84074 | 19.89690 | 34365 ft | 450 kts | 219° |
| 2026-05-05 09:57 | 43.81516 | 19.87191 | 34641 ft | 449 kts | 219° |
| 2026-05-05 09:57 | 43.78960 | 19.84698 | 34903 ft | 449 kts | 219° |
| 2026-05-05 09:58 | 43.76406 | 19.82211 | 35048 ft | 449 kts | 219° |
| 2026-05-05 09:58 | 43.73856 | 19.79729 | 35081 ft | 448 kts | 219° |
| 2026-05-05 09:58 | 43.68760 | 19.74771 | 35081 ft | 448 kts | 219° |
| 2026-05-05 09:59 | 43.63199 | 19.70670 | 35076 ft | 453 kts | 208° |
| 2026-05-05 09:59 | 43.57467 | 19.67060 | 35097 ft | 453 kts | 208° |
| 2026-05-05 10:00 | 43.51737 | 19.63456 | 35090 ft | 453 kts | 208° |
| 2026-05-05 10:00 | 43.46008 | 19.59872 | 35086 ft | 452 kts | 209° |
| 2026-05-05 10:01 | 43.40279 | 19.56283 | 35099 ft | 452 kts | 209° |
| 2026-05-05 10:01 | 43.34544 | 19.52697 | 35105 ft | 452 kts | 209° |
| 2026-05-05 10:02 | 43.28819 | 19.49128 | 35109 ft | 452 kts | 209° |
| 2026-05-05 10:02 | 43.23055 | 19.45534 | 35110 ft | 452 kts | 209° |
| 2026-05-05 10:03 | 43.17338 | 19.41976 | 35110 ft | 452 kts | 209° |
| 2026-05-05 10:03 | 43.11612 | 19.38429 | 35113 ft | 452 kts | 209° |
| 2026-05-05 10:04 | 43.05869 | 19.34889 | 35119 ft | 452 kts | 210° |
| 2026-05-05 10:04 | 43.00145 | 19.31353 | 35119 ft | 451 kts | 210° |
| 2026-05-05 10:05 | 42.94425 | 19.27828 | 35117 ft | 451 kts | 210° |
| 2026-05-05 10:05 | 42.88710 | 19.24318 | 35121 ft | 451 kts | 210° |
| 2026-05-05 10:06 | 42.82991 | 19.20800 | 35128 ft | 451 kts | 210° |
| 2026-05-05 10:06 | 42.77225 | 19.17274 | 35129 ft | 451 kts | 210° |
| 2026-05-05 10:07 | 42.71498 | 19.13783 | 35134 ft | 451 kts | 210° |
| 2026-05-05 10:07 | 42.65770 | 19.10298 | 35134 ft | 451 kts | 210° |
| 2026-05-05 10:08 | 42.61010 | 19.07402 | 35139 ft | 451 kts | 210° |
| 2026-05-05 10:08 | 42.55290 | 19.03919 | 35136 ft | 450 kts | 210° |
| 2026-05-05 10:09 | 42.49564 | 19.00445 | 35140 ft | 450 kts | 210° |
| 2026-05-05 10:09 | 42.43840 | 18.96990 | 35138 ft | 451 kts | 210° |
| 2026-05-05 10:10 | 42.38113 | 18.93533 | 35140 ft | 450 kts | 210° |
| 2026-05-05 10:10 | 42.32352 | 18.90066 | 35140 ft | 451 kts | 210° |
| 2026-05-05 10:11 | 42.26628 | 18.86623 | 35136 ft | 451 kts | 210° |
| 2026-05-05 10:11 | 42.20903 | 18.83175 | 35137 ft | 450 kts | 210° |
| 2026-05-05 10:12 | 42.15190 | 18.79748 | 35137 ft | 450 kts | 210° |
| 2026-05-05 10:12 | 42.09424 | 18.76306 | 35139 ft | 450 kts | 210° |
| 2026-05-05 10:13 | 42.04545 | 18.73396 | 35139 ft | 450 kts | 210° |
| 2026-05-05 10:13 | 41.97949 | 18.69473 | 35134 ft | 450 kts | 211° |
| 2026-05-05 10:14 | 41.92411 | 18.65703 | 35135 ft | 440 kts | 221° |
| 2026-05-05 10:14 | 41.87799 | 18.60484 | 35137 ft | 433 kts | 229° |
| 2026-05-05 10:15 | 41.83358 | 18.55053 | 35136 ft | 431 kts | 230° |
| 2026-05-05 10:15 | 41.79050 | 18.49497 | 35137 ft | 429 kts | 231° |
| 2026-05-05 10:16 | 41.74759 | 18.43936 | 35135 ft | 429 kts | 231° |
| 2026-05-05 10:16 | 41.70443 | 18.38415 | 35136 ft | 429 kts | 230° |
| 2026-05-05 10:17 | 41.66074 | 18.32890 | 35136 ft | 429 kts | 230° |
| 2026-05-05 10:17 | 41.61736 | 18.27411 | 35134 ft | 429 kts | 230° |
| 2026-05-05 10:18 | 41.57401 | 18.21922 | 35126 ft | 429 kts | 230° |
| 2026-05-05 10:18 | 41.53064 | 18.16439 | 35129 ft | 430 kts | 230° |
| 2026-05-05 10:19 | 41.48935 | 18.10747 | 35120 ft | 423 kts | 237° |
| 2026-05-05 10:19 | 41.45201 | 18.04676 | 35118 ft | 423 kts | 237° |
| 2026-05-05 10:20 | 41.41448 | 17.98620 | 35119 ft | 424 kts | 237° |
| 2026-05-05 10:20 | 41.37698 | 17.92575 | 35118 ft | 422 kts | 236° |
| 2026-05-05 10:21 | 41.33960 | 17.86556 | 35109 ft | 422 kts | 236° |
| 2026-05-05 10:21 | 41.30216 | 17.80538 | 35120 ft | 422 kts | 236° |
| 2026-05-05 10:22 | 41.26463 | 17.74523 | 35118 ft | 423 kts | 236° |
| 2026-05-05 10:22 | 41.22709 | 17.68517 | 35110 ft | 422 kts | 236° |
| 2026-05-05 10:23 | 41.18952 | 17.62512 | 35110 ft | 423 kts | 236° |
| 2026-05-05 10:23 | 41.15190 | 17.56506 | 35109 ft | 423 kts | 236° |
| 2026-05-05 10:24 | 41.11403 | 17.50483 | 35110 ft | 422 kts | 236° |
| 2026-05-05 10:24 | 41.07642 | 17.44502 | 35101 ft | 423 kts | 236° |
| 2026-05-05 10:25 | 41.03867 | 17.38531 | 35103 ft | 423 kts | 236° |
| 2026-05-05 10:25 | 41.00090 | 17.32559 | 35100 ft | 423 kts | 235° |
| 2026-05-05 10:26 | 40.96316 | 17.26585 | 35102 ft | 423 kts | 235° |
| 2026-05-05 10:26 | 40.92506 | 17.20584 | 35102 ft | 423 kts | 235° |
| 2026-05-05 10:27 | 40.88728 | 17.14655 | 35107 ft | 423 kts | 235° |
| 2026-05-05 10:27 | 40.84808 | 17.08503 | 35109 ft | 423 kts | 235° |
| 2026-05-05 10:28 | 40.81042 | 17.02592 | 35111 ft | 422 kts | 235° |
| 2026-05-05 10:28 | 40.77706 | 16.97376 | 35109 ft | 422 kts | 235° |
| 2026-05-05 10:29 | 40.73997 | 16.91591 | 35109 ft | 422 kts | 235° |
| 2026-05-05 10:29 | 40.70223 | 16.85716 | 35110 ft | 422 kts | 235° |
| 2026-05-05 10:30 | 40.66261 | 16.79543 | 35110 ft | 421 kts | 234° |
| 2026-05-05 10:30 | 40.62525 | 16.73747 | 35108 ft | 421 kts | 234° |
| 2026-05-05 10:31 | 40.58718 | 16.67867 | 35111 ft | 421 kts | 234° |
| 2026-05-05 10:31 | 40.54896 | 16.61958 | 35119 ft | 421 kts | 234° |
| 2026-05-05 10:32 | 40.51082 | 16.56064 | 35119 ft | 421 kts | 234° |
| 2026-05-05 10:32 | 40.47337 | 16.50295 | 35119 ft | 421 kts | 234° |
| 2026-05-05 10:33 | 40.43859 | 16.44961 | 35127 ft | 420 kts | 234° |
| 2026-05-05 10:33 | 40.39778 | 16.38704 | 35126 ft | 420 kts | 234° |
| 2026-05-05 10:34 | 40.36007 | 16.32924 | 35133 ft | 420 kts | 234° |
| 2026-05-05 10:34 | 40.32179 | 16.27073 | 35136 ft | 419 kts | 234° |
| 2026-05-05 10:35 | 40.30251 | 16.24131 | 35148 ft | 419 kts | 234° |
| 2026-05-05 10:36 | 40.17642 | 16.04951 | 35155 ft | 419 kts | 233° |
| 2026-05-05 10:37 | 40.13822 | 15.99188 | 35155 ft | 419 kts | 233° |
| 2026-05-05 10:37 | 40.10007 | 15.93423 | 35155 ft | 419 kts | 233° |
| 2026-05-05 10:38 | 40.06196 | 15.87663 | 35165 ft | 419 kts | 233° |
| 2026-05-05 10:38 | 40.02384 | 15.81906 | 35165 ft | 419 kts | 233° |
| 2026-05-05 10:39 | 39.98640 | 15.76098 | 35166 ft | 417 kts | 235° |
| 2026-05-05 10:39 | 39.95054 | 15.70160 | 35164 ft | 417 kts | 236° |
| 2026-05-05 10:40 | 39.91473 | 15.64201 | 35165 ft | 417 kts | 236° |
| 2026-05-05 10:40 | 39.87845 | 15.58289 | 35164 ft | 418 kts | 236° |
| 2026-05-05 10:41 | 39.84192 | 15.52399 | 35165 ft | 418 kts | 235° |
| 2026-05-05 10:41 | 39.80514 | 15.46473 | 35165 ft | 418 kts | 235° |
| 2026-05-05 10:42 | 39.75029 | 15.37602 | 35165 ft | 418 kts | 235° |
| 2026-05-05 10:43 | 39.71385 | 15.31722 | 35164 ft | 418 kts | 235° |
| 2026-05-05 10:43 | 39.67702 | 15.25813 | 35165 ft | 418 kts | 235° |
| 2026-05-05 10:44 | 39.64045 | 15.19950 | 35165 ft | 418 kts | 235° |
| 2026-05-05 10:44 | 39.60384 | 15.14084 | 35165 ft | 418 kts | 235° |
| 2026-05-05 10:45 | 39.56720 | 15.08230 | 35164 ft | 418 kts | 235° |
| 2026-05-05 10:45 | 39.53056 | 15.02377 | 35164 ft | 418 kts | 235° |
| 2026-05-05 10:46 | 39.49387 | 14.96524 | 35161 ft | 418 kts | 235° |
| 2026-05-05 10:46 | 39.45713 | 14.90690 | 35139 ft | 418 kts | 235° |
| 2026-05-05 10:47 | 39.42007 | 14.84818 | 35131 ft | 418 kts | 235° |
| 2026-05-05 10:47 | 39.38335 | 14.78995 | 35126 ft | 417 kts | 235° |
| 2026-05-05 10:48 | 39.34658 | 14.73190 | 35125 ft | 417 kts | 234° |
| 2026-05-05 10:48 | 39.30983 | 14.67387 | 35129 ft | 417 kts | 235° |
| 2026-05-05 10:49 | 39.27308 | 14.61593 | 35128 ft | 417 kts | 234° |
| 2026-05-05 10:49 | 39.23626 | 14.55807 | 35125 ft | 417 kts | 234° |
| 2026-05-05 10:50 | 39.19941 | 14.50019 | 35128 ft | 418 kts | 234° |
| 2026-05-05 10:50 | 39.16244 | 14.44233 | 35128 ft | 418 kts | 234° |
| 2026-05-05 10:51 | 39.12544 | 14.38440 | 35118 ft | 418 kts | 234° |
| 2026-05-05 10:51 | 39.08841 | 14.32668 | 35118 ft | 418 kts | 234° |
| 2026-05-05 10:52 | 39.05128 | 14.26895 | 35118 ft | 418 kts | 234° |
| 2026-05-05 10:52 | 39.01420 | 14.21130 | 35118 ft | 418 kts | 234° |
| 2026-05-05 10:53 | 38.97715 | 14.15367 | 35118 ft | 418 kts | 234° |
| 2026-05-05 10:53 | 38.93972 | 14.09571 | 35109 ft | 419 kts | 234° |
| 2026-05-05 10:54 | 38.90245 | 14.03811 | 35110 ft | 420 kts | 234° |
| 2026-05-05 10:54 | 38.86513 | 13.98051 | 35100 ft | 419 kts | 234° |
| 2026-05-05 10:55 | 38.82783 | 13.92302 | 35100 ft | 419 kts | 234° |
| 2026-05-05 10:55 | 38.79054 | 13.86565 | 35100 ft | 419 kts | 234° |
| 2026-05-05 10:56 | 38.75325 | 13.80832 | 35100 ft | 419 kts | 234° |
| 2026-05-05 10:56 | 38.71591 | 13.75108 | 35101 ft | 419 kts | 234° |
| 2026-05-05 10:56 | 38.69717 | 13.72239 | 35276 ft | 420 kts | 234° |
| 2026-05-05 10:57 | 38.67844 | 13.69374 | 35535 ft | 419 kts | 234° |
| 2026-05-05 10:57 | 38.65976 | 13.66521 | 35784 ft | 419 kts | 234° |
| 2026-05-05 10:57 | 38.64103 | 13.63663 | 35999 ft | 419 kts | 234° |
| 2026-05-05 10:58 | 38.60336 | 13.57916 | 36092 ft | 425 kts | 234° |
| 2026-05-05 10:58 | 38.56517 | 13.52109 | 36091 ft | 428 kts | 234° |
| 2026-05-05 10:59 | 38.52687 | 13.46291 | 36092 ft | 428 kts | 233° |
| 2026-05-05 10:59 | 38.49477 | 13.41424 | 36091 ft | 428 kts | 234° |
| 2026-05-05 11:00 | 38.45640 | 13.35606 | 36091 ft | 427 kts | 233° |
| 2026-05-05 11:00 | 38.41805 | 13.29821 | 36091 ft | 427 kts | 233° |
| 2026-05-05 11:01 | 38.37972 | 13.24035 | 36087 ft | 427 kts | 233° |
| 2026-05-05 11:01 | 38.34136 | 13.18259 | 36080 ft | 427 kts | 234° |
| 2026-05-05 11:02 | 38.30303 | 13.12485 | 36083 ft | 427 kts | 233° |
| 2026-05-05 11:02 | 38.26460 | 13.06721 | 36084 ft | 427 kts | 233° |
| 2026-05-05 11:03 | 38.22616 | 13.00962 | 36083 ft | 427 kts | 233° |
| 2026-05-05 11:03 | 38.18769 | 12.95214 | 36087 ft | 427 kts | 233° |
| 2026-05-05 11:04 | 38.14921 | 12.89472 | 36091 ft | 427 kts | 233° |
| 2026-05-05 11:04 | 38.11072 | 12.83740 | 36093 ft | 426 kts | 233° |
| 2026-05-05 11:05 | 38.07197 | 12.77979 | 36093 ft | 426 kts | 233° |
| 2026-05-05 11:05 | 38.03346 | 12.72263 | 36094 ft | 426 kts | 233° |
| 2026-05-05 11:06 | 37.99496 | 12.66566 | 36098 ft | 426 kts | 233° |
| 2026-05-05 11:06 | 37.95638 | 12.60867 | 36106 ft | 426 kts | 233° |
| 2026-05-05 11:07 | 37.91557 | 12.55241 | 36083 ft | 429 kts | 225° |
| 2026-05-05 11:07 | 37.87553 | 12.49927 | 36089 ft | 424 kts | 235° |
| 2026-05-05 11:08 | 37.84036 | 12.43579 | 36087 ft | 419 kts | 243° |
| 2026-05-05 11:08 | 37.80690 | 12.37822 | 36090 ft | 425 kts | 232° |
| 2026-05-05 11:09 | 37.76585 | 12.32412 | 36093 ft | 427 kts | 230° |
| 2026-05-05 11:09 | 37.72493 | 12.26926 | 36099 ft | 426 kts | 232° |
| 2026-05-05 11:10 | 37.68610 | 12.21299 | 36103 ft | 425 kts | 233° |
| 2026-05-05 11:10 | 37.64792 | 12.15619 | 36105 ft | 424 kts | 233° |
| 2026-05-05 11:11 | 37.60948 | 12.09963 | 36106 ft | 424 kts | 233° |
| 2026-05-05 11:11 | 37.57079 | 12.04345 | 36105 ft | 425 kts | 233° |
| 2026-05-05 11:12 | 37.53190 | 11.98721 | 36110 ft | 425 kts | 233° |
| 2026-05-05 11:12 | 37.49286 | 11.93125 | 36110 ft | 425 kts | 232° |
| 2026-05-05 11:13 | 37.45371 | 11.87540 | 36113 ft | 425 kts | 232° |
| 2026-05-05 11:13 | 37.41453 | 11.81959 | 36111 ft | 425 kts | 232° |
| 2026-05-05 11:14 | 37.38202 | 11.77323 | 36107 ft | 425 kts | 232° |